Terminal Aerodrome Forecast
Issued by NWS Caribou, ME

Home | Current Version | Previous Version | Text Only | Print | Product List | Glossary On
Versions: 1 2 3 4 5 6 7 8 9 10 11 12 13 14 15 16 17 18 19 20 21 22 23
000
FTUS41 KCAR 291120
TAFCAR
TAF
KCAR 291120Z 2912/3012 17006KT P6SM -SHRA SCT015 OVC050
     FM291300 17005KT 6SM -SHRA BKN015 OVC040
     FM291600 15007KT P6SM VCSH OVC020
     FM300200 17009KT 5SM BR OVC005
     FM300600 17010KT 3SM -SHRA BR OVC008=

USA.gov is the U.S. government's official web portal to all federal, state and local government web resources and services.